sensor_id;sensor_type;location;lat;lon;timestamp;temperature;humidity
5382;DHT22;2714;49.852;6.564;2023-03-01T00:01:51;-0.80;99.90
5382;DHT22;2714;49.852;6.564;2023-03-01T00:05:52;-0.70;99.90
5382;DHT22;2714;49.852;6.564;2023-03-01T00:09:52;-0.60;99.90
5382;DHT22;2714;49.852;6.564;2023-03-01T00:13:56;-0.50;99.90
5382;DHT22;2714;49.852;6.564;2023-03-01T00:17:57;-0.50;99.90
5382;DHT22;2714;49.852;6.564;2023-03-01T00:21:57;-0.40;99.90
5382;DHT22;2714;49.852;6.564;2023-03-01T00:25:58;-0.50;99.90
5382;DHT22;2714;49.852;6.564;2023-03-01T00:29:59;-0.50;99.90
5382;DHT22;2714;49.852;6.564;2023-03-01T00:34:04;-0.50;99.90
5382;DHT22;2714;49.852;6.564;2023-03-01T00:38:05;-0.50;99.90
5382;DHT22;2714;49.852;6.564;2023-03-01T00:42:05;-0.50;99.90
5382;DHT22;2714;49.852;6.564;2023-03-01T00:46:08;-0.40;99.90
5382;DHT22;2714;49.852;6.564;2023-03-01T00:50:10;-0.40;99.90
5382;DHT22;2714;49.852;6.564;2023-03-01T00:54:11;-0.40;99.90
5382;DHT22;2714;49.852;6.564;2023-03-01T00:58:12;-0.40;99.90
5382;DHT22;2714;49.852;6.564;2023-03-01T01:02:12;-0.40;99.90
5382;DHT22;2714;49.852;6.564;2023-03-01T01:06:37;-0.40;99.90
5382;DHT22;2714;49.852;6.564;2023-03-01T01:10:35;-0.40;99.90
5382;DHT22;2714;49.852;6.564;2023-03-01T01:14:36;-0.50;99.90
5382;DHT22;2714;49.852;6.564;2023-03-01T01:18:36;-0.50;99.90
5382;DHT22;2714;49.852;6.564;2023-03-01T01:22:37;-0.50;99.90
5382;DHT22;2714;49.852;6.564;2023-03-01T01:26:38;-0.50;99.90
5382;DHT22;2714;49.852;6.564;2023-03-01T01:30:38;-0.50;99.90
5382;DHT22;2714;49.852;6.564;2023-03-01T01:34:39;-0.50;99.90
5382;DHT22;2714;49.852;6.564;2023-03-01T01:38:39;-0.50;99.90
5382;DHT22;2714;49.852;6.564;2023-03-01T01:42:42;-0.50;99.90
5382;DHT22;2714;49.852;6.564;2023-03-01T01:50:51;-0.50;99.90
5382;DHT22;2714;49.852;6.564;2023-03-01T01:55:10;-0.50;99.90
5382;DHT22;2714;49.852;6.564;2023-03-01T01:59:12;-0.40;99.90
5382;DHT22;2714;49.852;6.564;2023-03-01T02:03:15;-0.40;99.90
5382;DHT22;2714;49.852;6.564;2023-03-01T02:07:22;-0.40;99.90
5382;DHT22;2714;49.852;6.564;2023-03-01T02:11:24;-0.30;99.90
5382;DHT22;2714;49.852;6.564;2023-03-01T02:15:26;-0.40;99.90
5382;DHT22;2714;49.852;6.564;2023-03-01T02:23:46;-0.40;99.90
5382;DHT22;2714;49.852;6.564;2023-03-01T02:32:14;-0.50;99.90
5382;DHT22;2714;49.852;6.564;2023-03-01T02:36:18;-0.60;99.90
5382;DHT22;2714;49.852;6.564;2023-03-01T02:40:19;-0.80;99.90
5382;DHT22;2714;49.852;6.564;2023-03-01T02:44:21;-0.80;99.90
5382;DHT22;2714;49.852;6.564;2023-03-01T02:48:22;-0.90;99.90
5382;DHT22;2714;49.852;6.564;2023-03-01T02:56:43;-0.90;99.90
5382;DHT22;2714;49.852;6.564;2023-03-01T03:00:44;-0.80;99.90
5382;DHT22;2714;49.852;6.564;2023-03-01T03:04:47;-0.90;99.90
5382;DHT22;2714;49.852;6.564;2023-03-01T03:08:47;-0.90;99.90
5382;DHT22;2714;49.852;6.564;2023-03-01T03:12:56;-0.90;99.90
5382;DHT22;2714;49.852;6.564;2023-03-01T03:16:57;-0.80;99.90
5382;DHT22;2714;49.852;6.564;2023-03-01T03:20:58;-0.80;99.90
5382;DHT22;2714;49.852;6.564;2023-03-01T03:24:59;-0.80;99.90
5382;DHT22;2714;49.852;6.564;2023-03-01T03:28:59;-0.80;99.90
5382;DHT22;2714;49.852;6.564;2023-03-01T03:33:00;-0.70;99.90
5382;DHT22;2714;49.852;6.564;2023-03-01T03:37:01;-0.70;99.90
5382;DHT22;2714;49.852;6.564;2023-03-01T03:41:04;-0.70;99.90
5382;DHT22;2714;49.852;6.564;2023-03-01T03:45:05;-0.70;99.90
5382;DHT22;2714;49.852;6.564;2023-03-01T03:49:06;-0.70;99.90
5382;DHT22;2714;49.852;6.564;2023-03-01T03:53:09;-0.70;99.90
5382;DHT22;2714;49.852;6.564;2023-03-01T03:57:10;-0.70;99.90
5382;DHT22;2714;49.852;6.564;2023-03-01T04:01:10;-0.70;99.90
5382;DHT22;2714;49.852;6.564;2023-03-01T04:05:13;-0.70;99.90
5382;DHT22;2714;49.852;6.564;2023-03-01T04:09:14;-0.60;99.90
5382;DHT22;2714;49.852;6.564;2023-03-01T04:13:17;-0.70;99.90
5382;DHT22;2714;49.852;6.564;2023-03-01T04:17:19;-0.70;99.90
5382;DHT22;2714;49.852;6.564;2023-03-01T04:21:20;-0.70;99.90
5382;DHT22;2714;49.852;6.564;2023-03-01T04:25:21;-0.70;99.90
5382;DHT22;2714;49.852;6.564;2023-03-01T04:29:21;-0.70;99.90
5382;DHT22;2714;49.852;6.564;2023-03-01T04:33:23;-0.70;99.90
5382;DHT22;2714;49.852;6.564;2023-03-01T04:37:25;-0.70;99.90
5382;DHT22;2714;49.852;6.564;2023-03-01T04:41:26;-0.70;99.90
5382;DHT22;2714;49.852;6.564;2023-03-01T04:45:27;-0.80;99.90
5382;DHT22;2714;49.852;6.564;2023-03-01T04:49:28;-0.80;99.90
5382;DHT22;2714;49.852;6.564;2023-03-01T04:53:28;-0.80;99.90
5382;DHT22;2714;49.852;6.564;2023-03-01T04:57:30;-0.80;99.90
5382;DHT22;2714;49.852;6.564;2023-03-01T05:01:30;-0.80;99.90
5382;DHT22;2714;49.852;6.564;2023-03-01T05:05:34;-0.80;99.90
5382;DHT22;2714;49.852;6.564;2023-03-01T05:09:35;-0.80;99.90
5382;DHT22;2714;49.852;6.564;2023-03-01T05:13:37;-0.80;99.90
5382;DHT22;2714;49.852;6.564;2023-03-01T05:17:38;-0.80;99.90
5382;DHT22;2714;49.852;6.564;2023-03-01T05:21:39;-0.80;99.90
5382;DHT22;2714;49.852;6.564;2023-03-01T05:25:59;-0.90;99.90
5382;DHT22;2714;49.852;6.564;2023-03-01T05:30:00;-0.90;99.90
5382;DHT22;2714;49.852;6.564;2023-03-01T05:34:13;-0.90;99.90
5382;DHT22;2714;49.852;6.564;2023-03-01T05:38:14;-0.90;99.90
5382;DHT22;2714;49.852;6.564;2023-03-01T05:42:15;-1.00;99.90
5382;DHT22;2714;49.852;6.564;2023-03-01T05:46:16;-1.00;99.90
5382;DHT22;2714;49.852;6.564;2023-03-01T05:50:18;-1.00;99.90
5382;DHT22;2714;49.852;6.564;2023-03-01T05:54:21;-1.10;99.90
5382;DHT22;2714;49.852;6.564;2023-03-01T05:58:22;-1.20;99.90
5382;DHT22;2714;49.852;6.564;2023-03-01T06:02:22;-1.20;99.90
5382;DHT22;2714;49.852;6.564;2023-03-01T06:06:24;-1.20;99.90
5382;DHT22;2714;49.852;6.564;2023-03-01T06:10:24;-1.20;99.90
5382;DHT22;2714;49.852;6.564;2023-03-01T06:14:25;-1.30;99.90
5382;DHT22;2714;49.852;6.564;2023-03-01T06:18:25;-1.30;99.90
5382;DHT22;2714;49.852;6.564;2023-03-01T06:22:27;-1.30;99.90
5382;DHT22;2714;49.852;6.564;2023-03-01T06:26:27;-1.20;99.90
5382;DHT22;2714;49.852;6.564;2023-03-01T06:30:28;-1.20;99.90
5382;DHT22;2714;49.852;6.564;2023-03-01T06:34:29;-1.20;99.90
5382;DHT22;2714;49.852;6.564;2023-03-01T06:38:29;-1.10;99.90
5382;DHT22;2714;49.852;6.564;2023-03-01T06:42:30;-1.10;99.90
5382;DHT22;2714;49.852;6.564;2023-03-01T06:46:30;-1.00;99.90
5382;DHT22;2714;49.852;6.564;2023-03-01T06:50:31;-0.80;99.90
5382;DHT22;2714;49.852;6.564;2023-03-01T06:54:32;-0.80;99.90
5382;DHT22;2714;49.852;6.564;2023-03-01T06:58:32;-0.70;99.90
5382;DHT22;2714;49.852;6.564;2023-03-01T07:02:33;-0.60;99.90
5382;DHT22;2714;49.852;6.564;2023-03-01T07:06:33;-0.60;99.90
5382;DHT22;2714;49.852;6.564;2023-03-01T07:10:34;-0.60;99.90
5382;DHT22;2714;49.852;6.564;2023-03-01T07:14:35;-0.70;99.90
5382;DHT22;2714;49.852;6.564;2023-03-01T07:18:35;-0.70;99.90
5382;DHT22;2714;49.852;6.564;2023-03-01T07:22:36;-0.60;99.90
5382;DHT22;2714;49.852;6.564;2023-03-01T07:26:37;-0.50;99.90
5382;DHT22;2714;49.852;6.564;2023-03-01T07:30:37;-0.50;99.90
5382;DHT22;2714;49.852;6.564;2023-03-01T07:34:38;-0.40;99.90
5382;DHT22;2714;49.852;6.564;2023-03-01T07:38:38;-0.30;99.90
5382;DHT22;2714;49.852;6.564;2023-03-01T07:42:39;-0.20;99.90
5382;DHT22;2714;49.852;6.564;2023-03-01T07:46:40;0.10;99.90
5382;DHT22;2714;49.852;6.564;2023-03-01T07:50:40;0.30;99.90
5382;DHT22;2714;49.852;6.564;2023-03-01T07:54:42;0.50;99.90
5382;DHT22;2714;49.852;6.564;2023-03-01T07:58:44;0.70;99.90
5382;DHT22;2714;49.852;6.564;2023-03-01T08:02:45;1.00;99.90
5382;DHT22;2714;49.852;6.564;2023-03-01T08:06:46;1.60;99.90
5382;DHT22;2714;49.852;6.564;2023-03-01T08:10:47;2.10;99.90
5382;DHT22;2714;49.852;6.564;2023-03-01T08:14:47;2.50;99.90
5382;DHT22;2714;49.852;6.564;2023-03-01T08:18:48;2.80;99.90
5382;DHT22;2714;49.852;6.564;2023-03-01T08:22:48;2.80;99.90
5382;DHT22;2714;49.852;6.564;2023-03-01T08:26:49;2.80;99.90
5382;DHT22;2714;49.852;6.564;2023-03-01T08:30:50;3.00;99.90
5382;DHT22;2714;49.852;6.564;2023-03-01T08:34:50;2.80;99.90
5382;DHT22;2714;49.852;6.564;2023-03-01T08:38:51;2.70;99.90
5382;DHT22;2714;49.852;6.564;2023-03-01T08:42:52;2.70;99.90
5382;DHT22;2714;49.852;6.564;2023-03-01T08:46:52;2.80;99.90
5382;DHT22;2714;49.852;6.564;2023-03-01T08:50:55;3.00;99.90
5382;DHT22;2714;49.852;6.564;2023-03-01T08:54:56;3.00;99.90
5382;DHT22;2714;49.852;6.564;2023-03-01T08:58:56;2.80;99.90
5382;DHT22;2714;49.852;6.564;2023-03-01T09:02:57;3.00;99.90
5382;DHT22;2714;49.852;6.564;2023-03-01T09:06:58;3.30;99.90
5382;DHT22;2714;49.852;6.564;2023-03-01T09:11:02;3.40;99.90
5382;DHT22;2714;49.852;6.564;2023-03-01T09:15:03;4.00;99.90
5382;DHT22;2714;49.852;6.564;2023-03-01T09:19:04;4.20;99.90
5382;DHT22;2714;49.852;6.564;2023-03-01T09:23:05;4.00;99.90
5382;DHT22;2714;49.852;6.564;2023-03-01T09:27:06;4.30;99.90
5382;DHT22;2714;49.852;6.564;2023-03-01T09:31:09;4.70;99.90
5382;DHT22;2714;49.852;6.564;2023-03-01T09:35:09;5.00;99.90
5382;DHT22;2714;49.852;6.564;2023-03-01T09:39:10;5.70;99.90
5382;DHT22;2714;49.852;6.564;2023-03-01T09:43:41;6.50;99.90
5382;DHT22;2714;49.852;6.564;2023-03-01T09:47:44;6.90;99.90
5382;DHT22;2714;49.852;6.564;2023-03-01T09:56:03;8.20;98.00
5382;DHT22;2714;49.852;6.564;2023-03-01T10:00:17;8.30;96.80
5382;DHT22;2714;49.852;6.564;2023-03-01T10:04:46;8.90;96.60
5382;DHT22;2714;49.852;6.564;2023-03-01T10:12:56;9.40;94.30
5382;DHT22;2714;49.852;6.564;2023-03-01T10:17:09;11.10;92.10
5382;DHT22;2714;49.852;6.564;2023-03-01T10:21:18;11.70;89.80
5382;DHT22;2714;49.852;6.564;2023-03-01T10:25:47;12.40;88.10
5382;DHT22;2714;49.852;6.564;2023-03-01T10:33:58;13.70;79.70
5382;DHT22;2714;49.852;6.564;2023-03-01T10:38:04;14.00;76.90
5382;DHT22;2714;49.852;6.564;2023-03-01T10:42:16;14.00;75.00
5382;DHT22;2714;49.852;6.564;2023-03-01T10:46:32;13.20;74.50
5382;DHT22;2714;49.852;6.564;2023-03-01T10:50:32;14.20;73.40
5382;DHT22;2714;49.852;6.564;2023-03-01T10:54:33;14.00;72.30
5382;DHT22;2714;49.852;6.564;2023-03-01T10:58:36;14.00;73.20
5382;DHT22;2714;49.852;6.564;2023-03-01T11:02:37;13.90;71.50
5382;DHT22;2714;49.852;6.564;2023-03-01T11:06:39;13.60;71.00
5382;DHT22;2714;49.852;6.564;2023-03-01T11:10:40;13.90;71.80
5382;DHT22;2714;49.852;6.564;2023-03-01T11:14:55;14.70;70.30
5382;DHT22;2714;49.852;6.564;2023-03-01T11:19:07;14.00;70.50
5382;DHT22;2714;49.852;6.564;2023-03-01T11:23:14;14.00;70.60
5382;DHT22;2714;49.852;6.564;2023-03-01T11:27:26;14.30;69.80
5382;DHT22;2714;49.852;6.564;2023-03-01T11:31:28;14.90;69.60
5382;DHT22;2714;49.852;6.564;2023-03-01T11:35:30;14.30;69.20
5382;DHT22;2714;49.852;6.564;2023-03-01T11:39:49;14.30;69.10
5382;DHT22;2714;49.852;6.564;2023-03-01T12:06:02;14.20;68.30
5382;DHT22;2714;49.852;6.564;2023-03-01T12:27:46;12.70;70.30
5382;DHT22;2714;49.852;6.564;2023-03-01T12:36:35;12.60;70.60
5382;DHT22;2714;49.852;6.564;2023-03-01T12:49:28;11.20;73.10
5382;DHT22;2714;49.852;6.564;2023-03-01T12:53:37;11.10;74.50
5382;DHT22;2714;49.852;6.564;2023-03-01T12:57:46;10.70;74.50
5382;DHT22;2714;49.852;6.564;2023-03-01T13:06:19;10.20;76.90
5382;DHT22;2714;49.852;6.564;2023-03-01T13:14:45;8.30;82.00
5382;DHT22;2714;49.852;6.564;2023-03-01T13:18:46;7.80;85.80
5382;DHT22;2714;49.852;6.564;2023-03-01T13:22:47;7.40;89.20
5382;DHT22;2714;49.852;6.564;2023-03-01T13:31:08;6.80;91.80
5382;DHT22;2714;49.852;6.564;2023-03-01T13:39:38;6.80;93.30
5382;DHT22;2714;49.852;6.564;2023-03-01T13:43:41;6.90;93.70
5382;DHT22;2714;49.852;6.564;2023-03-01T13:47:43;7.00;93.70
5382;DHT22;2714;49.852;6.564;2023-03-01T13:51:49;7.00;93.40
5382;DHT22;2714;49.852;6.564;2023-03-01T13:56:26;7.10;93.70
5382;DHT22;2714;49.852;6.564;2023-03-01T14:00:36;7.20;93.90
5382;DHT22;2714;49.852;6.564;2023-03-01T14:04:37;7.10;94.40
5382;DHT22;2714;49.852;6.564;2023-03-01T14:08:39;7.20;95.10
5382;DHT22;2714;49.852;6.564;2023-03-01T14:21:27;7.30;95.70
5382;DHT22;2714;49.852;6.564;2023-03-01T14:25:31;7.40;96.10
5382;DHT22;2714;49.852;6.564;2023-03-01T14:29:37;7.40;95.30
5382;DHT22;2714;49.852;6.564;2023-03-01T14:33:38;7.20;95.50
5382;DHT22;2714;49.852;6.564;2023-03-01T14:37:41;7.20;95.70
5382;DHT22;2714;49.852;6.564;2023-03-01T14:41:41;7.10;95.30
5382;DHT22;2714;49.852;6.564;2023-03-01T14:45:47;7.10;95.70
5382;DHT22;2714;49.852;6.564;2023-03-01T14:49:51;7.20;95.90
5382;DHT22;2714;49.852;6.564;2023-03-01T14:53:54;7.20;95.40
5382;DHT22;2714;49.852;6.564;2023-03-01T14:57:56;7.20;95.50
5382;DHT22;2714;49.852;6.564;2023-03-01T15:01:58;7.00;95.10
5382;DHT22;2714;49.852;6.564;2023-03-01T15:06:01;7.00;95.70
5382;DHT22;2714;49.852;6.564;2023-03-01T15:10:05;7.00;95.00
5382;DHT22;2714;49.852;6.564;2023-03-01T15:18:29;7.10;95.30
5382;DHT22;2714;49.852;6.564;2023-03-01T15:22:30;7.20;95.50
5382;DHT22;2714;49.852;6.564;2023-03-01T15:26:37;7.00;94.60
5382;DHT22;2714;49.852;6.564;2023-03-01T15:30:41;7.00;94.50
5382;DHT22;2714;49.852;6.564;2023-03-01T15:34:42;7.00;94.30
5382;DHT22;2714;49.852;6.564;2023-03-01T15:38:54;6.90;94.40
5382;DHT22;2714;49.852;6.564;2023-03-01T15:42:55;6.80;93.30
5382;DHT22;2714;49.852;6.564;2023-03-01T15:46:57;6.70;92.90
5382;DHT22;2714;49.852;6.564;2023-03-01T15:50:58;6.60;93.10
5382;DHT22;2714;49.852;6.564;2023-03-01T15:55:01;6.50;92.70
5382;DHT22;2714;49.852;6.564;2023-03-01T15:59:03;6.50;93.10
5382;DHT22;2714;49.852;6.564;2023-03-01T16:03:03;6.40;93.10
5382;DHT22;2714;49.852;6.564;2023-03-01T16:07:04;6.40;93.40
5382;DHT22;2714;49.852;6.564;2023-03-01T16:11:11;6.30;93.80
5382;DHT22;2714;49.852;6.564;2023-03-01T16:15:18;6.30;94.30
5382;DHT22;2714;49.852;6.564;2023-03-01T16:19:19;6.20;94.80
5382;DHT22;2714;49.852;6.564;2023-03-01T16:23:20;6.20;94.70
5382;DHT22;2714;49.852;6.564;2023-03-01T16:27:21;6.20;95.10
5382;DHT22;2714;49.852;6.564;2023-03-01T16:31:23;6.10;95.60
5382;DHT22;2714;49.852;6.564;2023-03-01T16:35:26;6.10;96.00
5382;DHT22;2714;49.852;6.564;2023-03-01T16:39:27;6.00;96.30
5382;DHT22;2714;49.852;6.564;2023-03-01T16:43:29;5.90;96.60
5382;DHT22;2714;49.852;6.564;2023-03-01T16:47:30;5.90;96.40
5382;DHT22;2714;49.852;6.564;2023-03-01T16:51:30;5.80;96.20
5382;DHT22;2714;49.852;6.564;2023-03-01T16:55:32;5.80;96.30
5382;DHT22;2714;49.852;6.564;2023-03-01T16:59:33;5.70;96.30
5382;DHT22;2714;49.852;6.564;2023-03-01T17:03:34;5.70;96.60
5382;DHT22;2714;49.852;6.564;2023-03-01T17:07:35;5.60;96.80
5382;DHT22;2714;49.852;6.564;2023-03-01T17:11:36;5.60;97.00
5382;DHT22;2714;49.852;6.564;2023-03-01T17:15:40;5.50;96.80
5382;DHT22;2714;49.852;6.564;2023-03-01T17:19:41;5.40;96.80
5382;DHT22;2714;49.852;6.564;2023-03-01T17:23:44;5.30;96.70
5382;DHT22;2714;49.852;6.564;2023-03-01T17:27:45;5.30;96.70
5382;DHT22;2714;49.852;6.564;2023-03-01T17:31:46;5.20;96.90
5382;DHT22;2714;49.852;6.564;2023-03-01T17:35:46;5.10;97.00
5382;DHT22;2714;49.852;6.564;2023-03-01T17:39:47;5.00;97.10
5382;DHT22;2714;49.852;6.564;2023-03-01T17:43:48;5.00;97.00
5382;DHT22;2714;49.852;6.564;2023-03-01T17:47:48;4.90;97.00
5382;DHT22;2714;49.852;6.564;2023-03-01T17:51:49;4.90;97.00
5382;DHT22;2714;49.852;6.564;2023-03-01T17:55:59;4.80;96.80
5382;DHT22;2714;49.852;6.564;2023-03-01T18:00:00;4.80;96.80
5382;DHT22;2714;49.852;6.564;2023-03-01T18:04:00;4.70;96.90
5382;DHT22;2714;49.852;6.564;2023-03-01T18:08:01;4.70;96.80
5382;DHT22;2714;49.852;6.564;2023-03-01T18:12:01;4.70;96.80
5382;DHT22;2714;49.852;6.564;2023-03-01T18:16:11;4.60;96.90
5382;DHT22;2714;49.852;6.564;2023-03-01T18:20:12;4.50;97.40
5382;DHT22;2714;49.852;6.564;2023-03-01T18:24:12;4.50;97.20
5382;DHT22;2714;49.852;6.564;2023-03-01T18:28:13;4.40;97.30
5382;DHT22;2714;49.852;6.564;2023-03-01T18:32:14;4.40;97.40
5382;DHT22;2714;49.852;6.564;2023-03-01T18:36:26;4.30;97.70
5382;DHT22;2714;49.852;6.564;2023-03-01T18:40:28;4.30;98.10
5382;DHT22;2714;49.852;6.564;2023-03-01T18:44:29;4.20;98.20
5382;DHT22;2714;49.852;6.564;2023-03-01T18:48:30;4.20;98.50
5382;DHT22;2714;49.852;6.564;2023-03-01T18:52:31;4.10;98.40
5382;DHT22;2714;49.852;6.564;2023-03-01T18:56:32;4.10;98.80
5382;DHT22;2714;49.852;6.564;2023-03-01T19:00:33;4.00;99.20
5382;DHT22;2714;49.852;6.564;2023-03-01T19:04:34;3.80;99.90
5382;DHT22;2714;49.852;6.564;2023-03-01T19:08:35;3.70;99.90
5382;DHT22;2714;49.852;6.564;2023-03-01T19:12:35;3.50;99.90
5382;DHT22;2714;49.852;6.564;2023-03-01T19:16:36;3.40;99.90
5382;DHT22;2714;49.852;6.564;2023-03-01T19:20:37;3.30;99.90
5382;DHT22;2714;49.852;6.564;2023-03-01T19:24:38;3.40;99.90
5382;DHT22;2714;49.852;6.564;2023-03-01T19:28:39;3.60;99.90
5382;DHT22;2714;49.852;6.564;2023-03-01T19:32:39;3.60;99.90
5382;DHT22;2714;49.852;6.564;2023-03-01T19:36:40;3.60;99.90
5382;DHT22;2714;49.852;6.564;2023-03-01T19:40:41;3.60;99.90
5382;DHT22;2714;49.852;6.564;2023-03-01T19:44:42;3.40;99.90
5382;DHT22;2714;49.852;6.564;2023-03-01T19:48:43;3.30;99.90
5382;DHT22;2714;49.852;6.564;2023-03-01T19:52:44;3.20;99.90
5382;DHT22;2714;49.852;6.564;2023-03-01T19:56:45;3.00;99.90
5382;DHT22;2714;49.852;6.564;2023-03-01T20:00:46;2.80;99.90
5382;DHT22;2714;49.852;6.564;2023-03-01T20:04:47;2.60;99.90
5382;DHT22;2714;49.852;6.564;2023-03-01T20:08:47;2.40;99.90
5382;DHT22;2714;49.852;6.564;2023-03-01T20:12:48;2.10;99.90
5382;DHT22;2714;49.852;6.564;2023-03-01T20:16:48;2.00;99.90
5382;DHT22;2714;49.852;6.564;2023-03-01T20:20:49;1.90;99.90
5382;DHT22;2714;49.852;6.564;2023-03-01T20:24:50;1.80;99.90
5382;DHT22;2714;49.852;6.564;2023-03-01T20:28:52;1.80;99.90
5382;DHT22;2714;49.852;6.564;2023-03-01T20:32:53;1.80;99.90
5382;DHT22;2714;49.852;6.564;2023-03-01T20:36:54;1.70;99.90
5382;DHT22;2714;49.852;6.564;2023-03-01T20:41:00;1.60;99.90
5382;DHT22;2714;49.852;6.564;2023-03-01T20:45:02;1.50;99.90
5382;DHT22;2714;49.852;6.564;2023-03-01T20:49:03;1.50;99.90
5382;DHT22;2714;49.852;6.564;2023-03-01T20:53:04;1.60;99.90
5382;DHT22;2714;49.852;6.564;2023-03-01T20:57:04;1.40;99.90
5382;DHT22;2714;49.852;6.564;2023-03-01T21:01:06;1.40;99.90
5382;DHT22;2714;49.852;6.564;2023-03-01T21:05:07;1.40;99.90
5382;DHT22;2714;49.852;6.564;2023-03-01T21:09:08;1.30;99.90
5382;DHT22;2714;49.852;6.564;2023-03-01T21:13:08;1.20;99.90
5382;DHT22;2714;49.852;6.564;2023-03-01T21:17:13;1.20;99.90
5382;DHT22;2714;49.852;6.564;2023-03-01T21:21:16;1.10;99.90
5382;DHT22;2714;49.852;6.564;2023-03-01T21:25:17;1.10;99.90
5382;DHT22;2714;49.852;6.564;2023-03-01T21:29:18;1.10;99.90
5382;DHT22;2714;49.852;6.564;2023-03-01T21:33:18;1.10;99.90
5382;DHT22;2714;49.852;6.564;2023-03-01T21:37:19;1.10;99.90
5382;DHT22;2714;49.852;6.564;2023-03-01T21:41:27;1.10;99.90
5382;DHT22;2714;49.852;6.564;2023-03-01T21:45:27;1.10;99.90
5382;DHT22;2714;49.852;6.564;2023-03-01T21:49:28;1.30;99.90
5382;DHT22;2714;49.852;6.564;2023-03-01T21:53:30;1.30;99.90
5382;DHT22;2714;49.852;6.564;2023-03-01T21:57:31;1.20;99.90
5382;DHT22;2714;49.852;6.564;2023-03-01T22:01:32;1.20;99.90
5382;DHT22;2714;49.852;6.564;2023-03-01T22:05:33;1.20;99.90
5382;DHT22;2714;49.852;6.564;2023-03-01T22:09:33;1.20;99.90
5382;DHT22;2714;49.852;6.564;2023-03-01T22:13:35;1.30;99.90
5382;DHT22;2714;49.852;6.564;2023-03-01T22:17:36;1.50;99.90
5382;DHT22;2714;49.852;6.564;2023-03-01T22:21:41;1.60;99.90
5382;DHT22;2714;49.852;6.564;2023-03-01T22:25:42;1.60;99.90
5382;DHT22;2714;49.852;6.564;2023-03-01T22:29:43;1.60;99.90
5382;DHT22;2714;49.852;6.564;2023-03-01T22:33:43;1.70;99.90
5382;DHT22;2714;49.852;6.564;2023-03-01T22:37:44;1.70;99.90
5382;DHT22;2714;49.852;6.564;2023-03-01T22:41:46;1.80;99.90
5382;DHT22;2714;49.852;6.564;2023-03-01T22:45:47;1.70;99.90
5382;DHT22;2714;49.852;6.564;2023-03-01T22:49:47;1.60;99.90
5382;DHT22;2714;49.852;6.564;2023-03-01T22:53:48;1.60;99.90
5382;DHT22;2714;49.852;6.564;2023-03-01T22:57:50;1.60;99.90
5382;DHT22;2714;49.852;6.564;2023-03-01T23:01:51;1.50;99.90
5382;DHT22;2714;49.852;6.564;2023-03-01T23:05:52;1.40;99.90
5382;DHT22;2714;49.852;6.564;2023-03-01T23:09:53;1.50;99.90
5382;DHT22;2714;49.852;6.564;2023-03-01T23:13:54;1.60;99.90
5382;DHT22;2714;49.852;6.564;2023-03-01T23:17:55;1.50;99.90
5382;DHT22;2714;49.852;6.564;2023-03-01T23:21:56;1.30;99.90
5382;DHT22;2714;49.852;6.564;2023-03-01T23:25:57;1.30;99.90
5382;DHT22;2714;49.852;6.564;2023-03-01T23:29:58;1.30;99.90
5382;DHT22;2714;49.852;6.564;2023-03-01T23:33:59;1.20;99.90
5382;DHT22;2714;49.852;6.564;2023-03-01T23:37:59;1.10;99.90
5382;DHT22;2714;49.852;6.564;2023-03-01T23:42:00;1.30;99.90
5382;DHT22;2714;49.852;6.564;2023-03-01T23:46:01;1.20;99.90
5382;DHT22;2714;49.852;6.564;2023-03-01T23:50:01;1.20;99.90
5382;DHT22;2714;49.852;6.564;2023-03-01T23:54:02;1.20;99.90
5382;DHT22;2714;49.852;6.564;2023-03-01T23:58:04;1.20;99.90
